createdAt,value
2019-03-13T00:00:15.558Z,11.37
2019-03-13T00:02:47.760Z,11.46
2019-03-13T00:05:18.037Z,11.46
2019-03-13T00:07:48.538Z,11.55
2019-03-13T00:10:19.339Z,11.50
2019-03-13T00:12:49.803Z,11.59
2019-03-13T00:15:20.471Z,11.58
2019-03-13T00:17:51.409Z,11.09
2019-03-13T00:20:21.761Z,11.09
2019-03-13T00:22:52.149Z,11.34
2019-03-13T00:25:23.316Z,11.19
2019-03-13T00:27:53.741Z,10.87
2019-03-13T00:30:24.324Z,10.75
2019-03-13T00:32:54.694Z,10.88
2019-03-13T00:35:25.317Z,10.79
2019-03-13T00:37:55.456Z,11.04
2019-03-13T00:40:25.796Z,10.39
2019-03-13T00:42:56.221Z,10.39
2019-03-13T00:45:26.150Z,10.43
2019-03-13T00:47:56.639Z,10.58
2019-03-13T00:50:30.465Z,10.06
2019-03-13T00:53:00.343Z,10.30
2019-03-13T00:55:30.561Z,10.17
2019-03-13T00:58:02.530Z,9.81
2019-03-13T01:00:50.442Z,9.81
2019-03-13T01:03:39.530Z,9.82
2019-03-13T01:06:14.567Z,9.19
2019-03-13T01:08:43.575Z,9.19
2019-03-13T01:11:14.290Z,8.87
2019-03-13T01:13:44.829Z,8.87
2019-03-13T01:16:14.762Z,9.29
2019-03-13T01:18:44.540Z,9.17
2019-03-13T01:21:14.567Z,9.21
2019-03-13T01:23:43.753Z,9.21
2019-03-13T01:26:15.326Z,8.91
2019-03-13T01:28:45.786Z,9.14
2019-03-13T01:31:41.995Z,8.67
2019-03-13T01:34:44.421Z,8.69
2019-03-13T01:37:15.638Z,8.67
2019-03-13T01:39:46.654Z,8.67
2019-03-13T01:42:16.992Z,8.52
2019-03-13T01:44:47.473Z,8.06
2019-03-13T01:47:17.916Z,8.17
2019-03-13T01:49:49.305Z,8.17
2019-03-13T01:52:20.324Z,8.50
2019-03-13T01:54:50.723Z,8.75
2019-03-13T01:57:21.513Z,8.80
2019-03-13T01:59:51.542Z,8.83
2019-03-13T02:02:21.116Z,8.56
2019-03-13T02:04:50.890Z,8.48
2019-03-13T02:07:20.673Z,8.48
2019-03-13T02:09:51.659Z,8.59
2019-03-13T02:12:22.898Z,8.54
2019-03-13T02:14:52.604Z,8.52
2019-03-13T02:17:21.759Z,8.47
2019-03-13T02:19:50.499Z,8.35
2019-03-13T02:22:21.566Z,8.54
2019-03-13T02:24:50.476Z,8.54
2019-03-13T02:27:20.702Z,8.42
2019-03-13T02:29:50.662Z,8.42
2019-03-13T02:32:20.793Z,8.70
2019-03-13T02:34:50.830Z,8.43
2019-03-13T02:37:20.645Z,8.54
2019-03-13T02:39:51.329Z,8.23
2019-03-13T02:42:22.760Z,8.46
2019-03-13T02:44:52.923Z,7.98
2019-03-13T02:47:23.525Z,8.03
2019-03-13T02:49:53.593Z,7.53
2019-03-13T02:52:22.817Z,7.53
2019-03-13T02:54:53.439Z,7.42
2019-03-13T02:57:24.101Z,7.55
2019-03-13T02:59:56.132Z,7.55
2019-03-13T03:02:51.634Z,7.30
2019-03-13T03:05:20.801Z,7.46
2019-03-13T03:07:51.556Z,7.29
2019-03-13T03:10:23.257Z,7.21
2019-03-13T03:12:54.159Z,7.38
2019-03-13T03:15:24.936Z,7.24
2019-03-13T03:17:56.329Z,7.35
2019-03-13T03:20:27.470Z,7.14
2019-03-13T03:22:57.535Z,7.03
2019-03-13T03:25:28.383Z,7.03
2019-03-13T03:27:59.633Z,6.87
2019-03-13T03:30:30.326Z,6.87
2019-03-13T03:33:00.326Z,6.57
2019-03-13T03:35:30.144Z,6.77
2019-03-13T03:38:00.870Z,6.90
2019-03-13T03:40:30.679Z,6.57
2019-03-13T03:42:59.827Z,6.54
2019-03-13T03:45:29.848Z,6.54
2019-03-13T03:48:00.636Z,6.41
2019-03-13T03:50:30.696Z,6.38
2019-03-13T03:53:00.861Z,6.44
2019-03-13T03:55:31.316Z,6.56
2019-03-13T03:58:01.647Z,6.65
2019-03-13T04:00:31.619Z,6.64
2019-03-13T04:03:01.551Z,6.69
2019-03-13T04:05:31.578Z,6.55
2019-03-13T04:08:00.894Z,6.55
2019-03-13T04:10:31.313Z,6.40
2019-03-13T04:13:01.816Z,6.68
2019-03-13T04:15:31.557Z,6.84
2019-03-13T04:18:01.587Z,6.78
2019-03-13T04:20:31.375Z,6.48
2019-03-13T04:23:01.327Z,6.78
2019-03-13T04:25:36.476Z,6.73
2019-03-13T04:28:07.435Z,6.43
2019-03-13T04:30:37.599Z,6.43
2019-03-13T04:33:07.690Z,6.56
2019-03-13T04:35:37.593Z,6.51
2019-03-13T04:38:06.688Z,6.40
2019-03-13T04:40:36.660Z,6.37
2019-03-13T04:43:06.445Z,6.11
2019-03-13T04:45:36.592Z,6.28
2019-03-13T04:48:05.940Z,5.90
2019-03-13T04:50:35.807Z,6.42
2019-03-13T04:53:05.682Z,6.65
2019-03-13T04:55:34.492Z,6.63
2019-03-13T04:58:04.842Z,6.67
2019-03-13T05:00:34.705Z,6.67
2019-03-13T05:03:04.986Z,6.81
2019-03-13T05:05:47.188Z,6.73
2019-03-13T05:08:51.615Z,6.59
2019-03-13T05:11:20.679Z,6.57
2019-03-13T05:13:50.866Z,6.41
2019-03-13T05:16:21.502Z,6.52
2019-03-13T05:18:51.327Z,6.45
2019-03-13T05:21:21.476Z,6.28
2019-03-13T05:23:51.166Z,6.30
2019-03-13T05:26:21.933Z,6.30
2019-03-13T05:28:54.571Z,6.47
2019-03-13T05:31:24.889Z,6.21
2019-03-13T05:33:54.482Z,6.31
2019-03-13T05:36:24.311Z,6.10
2019-03-13T05:38:56.314Z,6.22
2019-03-13T05:41:26.566Z,6.52
2019-03-13T05:43:55.658Z,6.20
2019-03-13T05:46:24.885Z,6.04
2019-03-13T05:48:55.105Z,6.20
2019-03-13T05:51:24.993Z,6.20
2019-03-13T05:53:57.515Z,6.09
2019-03-13T05:56:27.277Z,6.15
2019-03-13T05:58:57.514Z,6.15
2019-03-13T06:01:27.549Z,6.10
2019-03-13T06:03:57.332Z,6.00
2019-03-13T06:06:27.314Z,6.00
2019-03-13T06:08:57.076Z,5.89
2019-03-13T06:11:27.505Z,5.55
2019-03-13T06:13:57.198Z,5.44
2019-03-13T06:16:27.715Z,5.53
2019-03-13T06:18:58.510Z,5.63
2019-03-13T06:21:29.170Z,5.70
2019-03-13T06:23:59.527Z,5.74
2019-03-13T06:26:30.527Z,5.81
2019-03-13T06:29:00.859Z,5.98
2019-03-13T06:31:30.905Z,5.98
2019-03-13T06:34:00.837Z,6.22
2019-03-13T06:36:30.813Z,6.34
2019-03-13T06:39:00.997Z,6.33
2019-03-13T06:41:32.675Z,6.26
2019-03-13T06:44:01.816Z,6.32
2019-03-13T06:46:31.676Z,6.37
2019-03-13T06:49:00.817Z,6.04
2019-03-13T06:51:30.787Z,6.08
2019-03-13T06:54:00.946Z,6.07
2019-03-13T06:56:30.917Z,6.28
2019-03-13T06:59:21.987Z,6.27
2019-03-13T07:02:10.753Z,6.60
2019-03-13T07:04:50.867Z,6.47
2019-03-13T07:07:34.053Z,6.77
2019-03-13T07:10:24.110Z,6.84
2019-03-13T07:13:08.322Z,7.05
2019-03-13T07:15:46.867Z,7.07
2019-03-13T07:18:32.962Z,7.07
2019-03-13T07:21:29.325Z,7.97
2019-03-13T07:24:11.337Z,9.97
2019-03-13T07:31:19.339Z,10.20
2019-03-13T07:34:45.572Z,9.90
2019-03-13T07:37:51.328Z,9.86
2019-03-13T07:41:10.808Z,9.86
2019-03-13T07:44:37.149Z,9.83
2019-03-13T07:47:37.731Z,9.84
2019-03-13T07:50:46.552Z,10.66
2019-03-13T07:53:51.302Z,10.66
2019-03-13T07:56:56.636Z,14.97
2019-03-13T07:59:44.643Z,14.97
2019-03-13T08:02:22.473Z,16.62
2019-03-13T08:05:27.479Z,18.44
2019-03-13T08:08:26.893Z,17.10
2019-03-13T08:11:22.212Z,17.10
2019-03-13T08:14:11.609Z,17.47
2019-03-13T08:17:01.141Z,18.39
2019-03-13T08:19:49.776Z,19.73
2019-03-13T08:22:34.633Z,19.92
2019-03-13T08:25:23.788Z,19.85
2019-03-13T08:28:17.442Z,19.73
2019-03-13T08:31:05.824Z,19.88
2019-03-13T08:34:09.323Z,20.85
2019-03-13T08:36:57.849Z,21.63
2019-03-13T08:39:46.300Z,23.81
2019-03-13T08:42:51.960Z,23.17
2019-03-13T08:45:48.733Z,20.84
2019-03-13T08:48:50.747Z,17.39
2019-03-13T08:51:36.353Z,17.81
2019-03-13T08:54:24.948Z,18.64
2019-03-13T08:57:07.145Z,16.36
2019-03-13T08:59:56.551Z,15.91
2019-03-13T09:03:02.175Z,14.89
2019-03-13T09:05:54.317Z,14.15
2019-03-13T09:08:43.962Z,13.04
2019-03-13T09:11:32.589Z,13.47
2019-03-13T09:14:21.524Z,14.18
2019-03-13T09:17:10.640Z,14.84
2019-03-13T09:20:35.250Z,17.80
2019-03-13T09:23:18.773Z,19.66
2019-03-13T09:26:17.552Z,18.55
2019-03-13T09:28:56.561Z,18.26
2019-03-13T09:31:52.978Z,16.39
2019-03-13T09:34:48.187Z,14.84
2019-03-13T09:37:43.681Z,14.83
2019-03-13T09:40:32.510Z,17.70
2019-03-13T09:43:37.137Z,19.83
2019-03-13T09:46:26.935Z,19.83
2019-03-13T09:49:28.566Z,20.69
2019-03-13T09:52:19.308Z,20.27
2019-03-13T09:55:06.753Z,20.27
2019-03-13T09:58:02.336Z,20.44
2019-03-13T10:00:47.785Z,21.24
2019-03-13T10:03:39.719Z,18.52
2019-03-13T10:06:23.895Z,18.22
2019-03-13T10:09:13.710Z,17.29
2019-03-13T10:12:03.441Z,18.05
2019-03-13T10:14:56.938Z,18.61
2019-03-13T10:17:37.514Z,18.23
2019-03-13T10:20:27.041Z,17.56
2019-03-13T10:23:16.525Z,16.92
2019-03-13T10:26:03.637Z,15.44
2019-03-13T10:28:53.193Z,15.44
2019-03-13T10:31:47.682Z,15.15
2019-03-13T10:34:28.547Z,14.24
2019-03-13T10:37:10.678Z,14.44
2019-03-13T10:39:57.925Z,15.77
2019-03-13T10:42:47.048Z,14.42
2019-03-13T10:45:35.995Z,14.28
2019-03-13T10:48:11.676Z,14.97
2019-03-13T10:50:59.856Z,16.30
2019-03-13T10:53:49.148Z,14.82
2019-03-13T10:56:38.873Z,14.31
2019-03-13T10:59:25.577Z,13.35
2019-03-13T11:02:26.819Z,13.47
2019-03-13T11:05:17.595Z,12.77
2019-03-13T11:08:20.561Z,12.37
2019-03-13T11:11:14.854Z,12.17
2019-03-13T11:14:18.811Z,12.80
2019-03-13T11:17:19.522Z,12.69
2019-03-13T11:20:25.825Z,12.85
2019-03-13T11:23:16.311Z,16.91
2019-03-13T11:26:01.231Z,16.42
2019-03-13T11:28:48.846Z,15.37
2019-03-13T11:31:37.464Z,14.32
2019-03-13T11:34:18.722Z,13.85
2019-03-13T11:37:07.132Z,13.85
2019-03-13T11:39:51.744Z,13.02
2019-03-13T11:42:42.775Z,12.89
2019-03-13T11:45:23.898Z,12.20
2019-03-13T11:48:19.107Z,11.66
2019-03-13T11:51:17.641Z,11.14
2019-03-13T11:54:07.026Z,11.46
2019-03-13T11:56:57.324Z,11.36
2019-03-13T11:59:49.560Z,11.08
2019-03-13T12:02:44.571Z,11.21
2019-03-13T12:05:41.322Z,10.81
2019-03-13T12:08:49.686Z,10.81
2019-03-13T12:11:57.394Z,11.08
2019-03-13T12:14:53.320Z,11.08
2019-03-13T12:17:33.323Z,11.36
2019-03-13T12:20:27.150Z,11.61
2019-03-13T12:23:13.678Z,11.12
2019-03-13T12:26:03.448Z,11.51
2019-03-13T12:28:54.903Z,12.63
2019-03-13T12:31:44.424Z,15.49
2019-03-13T12:34:34.358Z,16.32
2019-03-13T12:37:21.325Z,16.61
2019-03-13T12:40:25.979Z,16.83
2019-03-13T12:43:15.853Z,16.01
2019-03-13T12:45:54.597Z,13.76
2019-03-13T12:48:41.538Z,12.59
2019-03-13T12:51:32.766Z,14.24
2019-03-13T12:54:20.731Z,14.24
2019-03-13T12:57:15.977Z,14.58
2019-03-13T13:00:05.341Z,16.43
2019-03-13T13:02:56.630Z,18.85
2019-03-13T13:05:45.294Z,20.97
2019-03-13T13:08:34.649Z,19.25
2019-03-13T13:11:23.327Z,15.30
2019-03-13T13:14:15.616Z,13.91
2019-03-13T13:17:04.573Z,13.69
2019-03-13T13:19:34.488Z,12.71
2019-03-13T13:22:04.623Z,10.94
2019-03-13T13:24:35.474Z,10.94
2019-03-13T13:27:06.783Z,10.79
2019-03-13T13:29:39.814Z,9.66
2019-03-13T13:32:11.710Z,8.86
2019-03-13T13:34:43.483Z,8.70
2019-03-13T13:37:14.145Z,9.08
2019-03-13T13:39:45.183Z,9.08
2019-03-13T13:42:15.028Z,11.04
2019-03-13T13:44:45.970Z,12.30
2019-03-13T13:47:17.028Z,13.29
2019-03-13T13:49:59.137Z,13.74
2019-03-13T13:52:20.949Z,13.50
2019-03-13T13:54:51.154Z,14.17
2019-03-13T13:57:23.037Z,14.41
2019-03-13T13:59:53.942Z,14.51
2019-03-13T14:02:25.321Z,14.17
2019-03-13T14:04:56.574Z,14.08
2019-03-13T14:07:27.159Z,14.64
2019-03-13T14:10:02.779Z,13.41
2019-03-13T14:12:34.381Z,13.12
2019-03-13T14:15:05.311Z,12.33
2019-03-13T14:17:36.754Z,12.33
2019-03-13T14:20:08.334Z,11.62
2019-03-13T14:22:40.821Z,11.73
2019-03-13T14:25:11.956Z,12.36
2019-03-13T14:30:46.878Z,12.90
2019-03-13T14:34:22.022Z,12.98
2019-03-13T14:46:39.214Z,12.13
2019-03-13T14:50:25.256Z,12.23
2019-03-13T14:58:03.776Z,12.29
2019-03-13T15:01:21.189Z,12.48
2019-03-13T15:37:43.901Z,11.90
2019-03-13T15:50:48.707Z,12.34
2019-03-13T16:21:10.148Z,12.14
2019-03-13T16:24:31.254Z,11.42
2019-03-13T16:33:07.552Z,10.80
2019-03-13T16:36:20.331Z,10.73
2019-03-13T16:42:01.744Z,10.94
2019-03-13T16:45:53.563Z,11.09
2019-03-13T17:21:15.230Z,9.58
2019-03-13T17:29:37.308Z,9.57
2019-03-13T17:55:28.074Z,9.36
2019-03-13T18:19:19.721Z,9.29
2019-03-13T18:22:19.653Z,9.24
2019-03-13T18:25:22.476Z,9.87
2019-03-13T18:28:27.188Z,10.04
2019-03-13T18:31:13.793Z,10.21
2019-03-13T18:33:50.249Z,9.96
2019-03-13T18:49:40.903Z,9.11
2019-03-13T19:02:55.275Z,8.65
2019-03-13T19:06:28.709Z,8.10
2019-03-13T19:10:04.884Z,8.06
2019-03-13T19:13:30.836Z,7.75
2019-03-13T19:16:38.076Z,7.53
2019-03-13T19:19:45.504Z,7.39
2019-03-13T19:37:42.104Z,7.33
2019-03-13T19:45:15.375Z,7.31
2019-03-13T19:49:57.788Z,7.36
2019-03-13T20:36:12.757Z,7.42
2019-03-13T20:40:31.653Z,7.42
2019-03-13T20:43:34.059Z,7.64
2019-03-13T20:47:05.647Z,7.46
2019-03-13T20:49:57.575Z,7.46
2019-03-13T20:53:29.781Z,7.56
2019-03-13T20:56:44.127Z,7.70
2019-03-13T21:00:19.465Z,7.65
2019-03-13T21:07:29.408Z,7.62
2019-03-13T21:09:59.719Z,7.64
2019-03-13T21:12:29.601Z,7.65
2019-03-13T21:14:58.748Z,7.38
2019-03-13T21:17:28.480Z,7.58
2019-03-13T21:19:58.340Z,7.21
2019-03-13T21:22:28.058Z,7.21
2019-03-13T21:24:57.845Z,7.26
2019-03-13T21:27:29.722Z,7.02
2019-03-13T21:29:59.349Z,6.89
2019-03-13T21:32:28.943Z,6.58
2019-03-13T21:34:59.565Z,6.58
2019-03-13T21:37:28.541Z,6.38
2019-03-13T21:39:58.612Z,6.38
2019-03-13T21:42:27.767Z,6.39
2019-03-13T21:44:57.581Z,6.46
2019-03-13T21:47:26.482Z,6.17
2019-03-13T21:49:56.714Z,6.36
2019-03-13T21:52:26.575Z,6.36
2019-03-13T21:54:56.192Z,6.31
2019-03-13T21:57:26.113Z,6.31
2019-03-13T21:59:55.845Z,5.89
2019-03-13T22:02:32.908Z,6.21
2019-03-13T22:05:04.709Z,6.28
2019-03-13T22:07:35.867Z,5.50
2019-03-13T22:10:06.846Z,6.04
2019-03-13T22:12:36.566Z,5.78
2019-03-13T22:15:07.537Z,6.13
2019-03-13T22:17:37.316Z,6.00
2019-03-13T22:20:07.733Z,6.00
2019-03-13T22:22:37.183Z,6.21
2019-03-13T22:25:07.768Z,6.27
2019-03-13T22:27:38.604Z,6.02
2019-03-13T22:30:11.046Z,6.21
2019-03-13T22:32:40.661Z,6.02
2019-03-13T22:35:10.466Z,6.01
2019-03-13T22:37:40.120Z,5.88
2019-03-13T22:40:10.794Z,6.18
2019-03-13T22:42:40.822Z,5.94
2019-03-13T22:45:11.837Z,5.99
2019-03-13T22:47:43.020Z,6.26
2019-03-13T22:50:15.960Z,6.37
2019-03-13T22:52:47.516Z,6.73
2019-03-13T22:55:17.056Z,6.69
2019-03-13T22:57:46.758Z,6.48
2019-03-13T23:00:59.311Z,6.70
2019-03-13T23:03:31.843Z,6.66
2019-03-13T23:06:01.598Z,6.67
2019-03-13T23:08:31.497Z,6.66
2019-03-13T23:11:00.803Z,6.62
2019-03-13T23:13:30.526Z,6.86
2019-03-13T23:16:00.342Z,6.55
2019-03-13T23:18:29.836Z,6.55
2019-03-13T23:20:59.565Z,6.24
2019-03-13T23:23:29.069Z,6.40
2019-03-13T23:25:58.868Z,6.40
2019-03-13T23:28:28.681Z,6.63
2019-03-13T23:30:58.094Z,6.93
2019-03-13T23:33:27.911Z,6.89
2019-03-13T23:35:57.567Z,6.75
2019-03-13T23:38:27.141Z,6.90
2019-03-13T23:40:57.106Z,6.79
2019-03-13T23:43:26.821Z,6.81
2019-03-13T23:45:56.588Z,7.03
2019-03-13T23:48:25.498Z,6.94
2019-03-13T23:50:55.671Z,6.80
2019-03-13T23:53:25.057Z,6.80
2019-03-13T23:55:55.324Z,6.83
2019-03-13T23:58:25.320Z,6.62
